Main page


Airports :

Ferrara, Italy

latitude: 44-50N, longitude: 011-37E, elevation: 10 m

Current weather observation

The report was made 32 minutes ago, at 16:55 UTC
Wind 3 kt from the Southeast
Temperature 10°C
Humidity 50%
Pressure 1005 hPa
Visibility 10 km or more
no clouds below 1500 m and no cumulonimbus

METAR: LIPF 241655Z 13003KT CAVOK 10/M00 Q1005 RMK BKN BKN200 VIS MIN 9999

Time: 18:27 (17:27 UTC)

TAF: missing

Weather observations and forecasts of more than 4000 airports (METAR and TAF reports).

The available stations are represented by yellow and red dots on the map.

Hover mouse over dot to see the name of the station.

Then click to see weather observations and forecasts.

To change the map : click on the green buttons with a black cross to zoom in, on the green button with a dash to zoom out, or on the green arrows for adjacent maps.